Weather reports worldwide

Advertisment
Torino Venaria, Italy (16060): temperature & dewpoint: 12.07.2019 07:00:00 - 18.07.2019 07:00:00 (CEST)Torino Venaria, Italy (16060): wind speed: 12.07.2019 07:00:00 - 18.07.2019 07:00:00 (CEST)Torino Venaria, Italy (16060): wind direction: 12.07.2019 07:00:00 - 18.07.2019 07:00:00 (CEST)Torino Venaria, Italy (16060): reduced air pressure: 12.07.2019 07:00:00 - 18.07.2019 07:00:00 (CEST)
Date & Time tt [°C] td [°C] ff [km/h] ff [kn] dd ppp [hPa]
18.07.2019 07:00:00 14,4 14,3 5 3 WNW 1009,3
18.07.2019 06:00:00 14,2 14,1 4 2 WNW 1009,1
18.07.2019 05:00:00 14,3 13,8 2 1 W 1009,0
18.07.2019 04:00:00 15,6 14,9 4 2 NW 1008,9
18.07.2019 03:00:00 15,1 13,9 4 2 WNW 1008,8
18.07.2019 02:00:00 17,1 15,6 4 2 WNW 1008,9
18.07.2019 01:00:00 18,0 16,1 2 1 NE 1008,9
18.07.2019 00:00:00 17,1 14,3 4 2 WNW 1008,7
17.07.2019 23:00:00 19,2 13,5 2 1 NW 1008,4
17.07.2019 22:00:00 22,1 12,8 2 1 N 1008,0
17.07.2019 21:00:00 24,8 12,4 8 4 ENE 1007,2
17.07.2019 20:00:00 26,2 12,9 5 3 E 1007,0
17.07.2019 19:00:00 27,1 13,4 8 4 NE 1007,1
17.07.2019 18:00:00 27,2 14,2 8 4 ESE 1007,3
17.07.2019 17:00:00 27,2 14,2 8 4 NNE 1007,9
17.07.2019 16:00:00 26,9 15,2 9 5 NNE 1008,2
17.07.2019 15:00:00 26,5 15,8 8 4 ENE 1008,7
17.07.2019 14:00:00 26,3 15,9 5 3 N 1009,3
17.07.2019 13:00:00 25,2 13,7 5 3 NW 1010,0
17.07.2019 12:00:00 23,9 15,3 5 3 NNE 1010,3
17.07.2019 11:00:00 22,7 14,7 5 3 N 1010,8
17.07.2019 10:00:00 21,7 15,0 8 4 E 1011,3
17.07.2019 09:00:00 19,1 17,2 2 1 NW 1011,5
17.07.2019 08:00:00 16,2 16,1 2 1 NW 1011,9
17.07.2019 07:00:00 14,0 13,8 5 3 WNW 1012,0
17.07.2019 06:00:00 14,0 13,8 4 2 NW 1011,9
17.07.2019 05:00:00 13,8 13,6 5 3 WNW 1011,9
17.07.2019 04:00:00 13,8 13,4 5 3 NW 1012,0
17.07.2019 03:00:00 14,4 13,9 5 3 NW 1012,2
17.07.2019 02:00:00 14,4 13,6 4 2 WNW 1012,4
17.07.2019 01:00:00 15,6 14,1 2 1 NW 1012,1
17.07.2019 00:00:00 16,0 13,6 4 2 WNW 1011,8
16.07.2019 23:00:00 18,3 15,3 4 2 WNW 1011,5
16.07.2019 22:00:00 19,8 13,6 4 2 NW 1011,1
16.07.2019 21:00:00 22,2 14,0 4 2 WSW 1010,4
16.07.2019 20:00:00 24,7 14,4 5 3 SW 1010,1
16.07.2019 19:00:00 26,5 13,5 9 5 W 1009,8
16.07.2019 18:00:00 27,1 13,7 8 4 W 1010,0
16.07.2019 17:00:00 26,5 13,2 9 5 WSW 1010,4
16.07.2019 16:00:00 26,3 13,0 8 4 WSW 1010,9
16.07.2019 15:00:00 25,6 13,0 8 4 SSW 1011,1
16.07.2019 14:00:00 24,8 12,0 8 4 SSE 1011,5
16.07.2019 13:00:00 23,9 12,2 4 2 SSW 1011,8
16.07.2019 12:00:00 22,6 12,8 4 2 SE 1012,2
16.07.2019 11:00:00 20,8 12,4 5 3 E 1012,6
16.07.2019 10:00:00 18,4 15,0 2 1 ENE 1012,9
16.07.2019 09:00:00 15,2 15,0 2 1 WSW 1013,0
16.07.2019 08:00:00 12,2 12,2 0 0 N 1013,2
16.07.2019 07:00:00 10,0 10,0 2 1 NNW 1013,3
16.07.2019 06:00:00 9,7 9,7 2 1 WNW 1013,1
16.07.2019 05:00:00 9,8 9,8 2 1 S 1013,3
16.07.2019 04:00:00 10,6 10,6 2 1 N 1013,4
16.07.2019 03:00:00 10,3 10,1 2 1 WSW 1013,4
16.07.2019 02:00:00 10,5 9,9 5 3 W 1013,6
16.07.2019 01:00:00 11,9 11,4 2 1 NW 1013,6
16.07.2019 00:00:00 12,1 11,2 4 2 WNW 1013,4
15.07.2019 23:00:00 13,6 12,6 5 3 WNW 1012,9
15.07.2019 22:00:00 14,5 11,1 2 1 NW 1012,2
15.07.2019 21:00:00 17,9 12,9 4 2 SW 1011,0
15.07.2019 20:00:00 19,7 14,0 5 3 WSW 1010,7
15.07.2019 19:00:00 18,4 15,0 9 5 WSW 1010,7
15.07.2019 18:00:00 17,4 15,3 9 5 W 1011,6
15.07.2019 17:00:00 16,6 15,9 5 3 W 1011,9
15.07.2019 16:00:00 15,3 15,1 8 4 NW 1012,2
15.07.2019 15:00:00 14,8 14,6 5 3 NNW 1011,8
15.07.2019 14:00:00 14,3 14,2 8 4 NNW 1011,3
15.07.2019 13:00:00 13,8 13,7 8 4 N 1011,1
15.07.2019 12:00:00 13,1 13,0 4 2 NW 1010,5
15.07.2019 11:00:00 13,1 13,0 4 2 NW 1010,6
15.07.2019 10:00:00 13,0 12,9 8 4 WNW 1010,1
15.07.2019 09:00:00 12,4 12,4 9 5 NNW 1010,4
15.07.2019 08:00:00 12,6 12,6 9 5 NE 1009,5
15.07.2019 07:00:00 13,5 13,4 11 6 N 1008,3
15.07.2019 06:00:00 13,7 13,6 11 6 NNE 1007,8
15.07.2019 05:00:00 15,2 15,1 13 7 NE 1007,1
15.07.2019 04:00:00 15,9 15,8 11 6 ENE 1007,2
15.07.2019 03:00:00 16,0 15,9 9 5 NNE 1007,2
15.07.2019 02:00:00 16,0 15,9 5 3 N 1008,1
15.07.2019 01:00:00 16,7 16,0 5 3 S 1008,2
15.07.2019 00:00:00 17,6 17,5 8 4 WSW 1007,7
14.07.2019 23:00:00 17,9 17,0 13 7 SSW 1007,8
14.07.2019 22:00:00 19,4 15,8 15 8 S 1007,3
14.07.2019 21:00:00 23,3 13,7 4 2 NW 1006,4
14.07.2019 20:00:00 24,3 12,8 8 4 NE 1005,7
14.07.2019 19:00:00 24,6 12,2 9 5 E 1005,7
14.07.2019 18:00:00 25,2 11,7 9 5 E 1005,9
14.07.2019 17:00:00 26,4 11,7 9 5 ENE 1006,0
14.07.2019 16:00:00 26,4 11,3 8 4 NNE 1006,5
14.07.2019 15:00:00 25,8 11,9 8 4 E 1007,1
14.07.2019 14:00:00 25,6 11,7 9 5 E 1007,8
14.07.2019 13:00:00 24,9 12,5 11 6 E 1008,2
14.07.2019 12:00:00 23,8 12,1 9 5 E 1008,8
14.07.2019 11:00:00 23,0 12,3 8 4 E 1009,2
14.07.2019 10:00:00 21,7 12,5 8 4 NE 1009,4
14.07.2019 09:00:00 21,4 12,8 5 3 ENE 1009,4
14.07.2019 08:00:00 18,9 15,9 0 0 N 1009,4
14.07.2019 07:00:00 15,6 12,3 4 2 WSW 1009,9
14.07.2019 06:00:00 17,9 11,6 4 2 N 1009,6
14.07.2019 05:00:00 18,9 11,2 4 2 NNE 1010,0
14.07.2019 04:00:00 19,6 11,1 8 4 NE 1010,5
14.07.2019 03:00:00 21,1 8,6 9 5 NNE 1010,4
14.07.2019 02:00:00 19,1 13,8 5 3 NNW 1010,4
14.07.2019 01:00:00 19,5 16,1 2 1 NNW 1010,1
14.07.2019 00:00:00 18,6 14,6 5 3 WNW 1009,5
13.07.2019 23:00:00 19,9 15,3 5 3 WNW 1008,9
13.07.2019 22:00:00 22,4 12,6 5 3 NW 1007,9
13.07.2019 21:00:00 26,1 11,0 5 3 S 1006,8
13.07.2019 20:00:00 27,4 12,2 8 4 NE 1006,1
13.07.2019 19:00:00 27,9 13,4 11 6 ENE 1005,8
13.07.2019 18:00:00 28,3 13,7 15 8 E 1005,8
13.07.2019 17:00:00 28,5 13,9 11 6 ENE 1005,8
13.07.2019 16:00:00 28,3 14,1 11 6 ENE 1005,9
13.07.2019 15:00:00 28,4 14,6 9 5 NNW 1006,1
13.07.2019 14:00:00 27,8 14,0 8 4 NNE 1006,7
13.07.2019 13:00:00 26,8 13,8 9 5 NNE 1007,1
13.07.2019 12:00:00 25,3 16,6 8 4 ENE 1007,4
13.07.2019 11:00:00 23,8 16,5 8 4 E 1007,8
13.07.2019 10:00:00 22,6 17,0 8 4 E 1008,1
13.07.2019 09:00:00 21,4 19,3 4 2 N 1008,2
13.07.2019 08:00:00 17,0 16,9 4 2 WSW 1008,4
13.07.2019 07:00:00 14,2 13,8 0 0 N 1008,4
13.07.2019 06:00:00 13,9 12,9 4 2 NNW 1008,1
13.07.2019 05:00:00 15,1 13,6 4 2 NW 1007,9
13.07.2019 04:00:00 16,1 15,6 4 2 N 1007,5
13.07.2019 03:00:00 15,9 15,4 8 4 W 1007,4
13.07.2019 02:00:00 15,8 14,1 2 1 SW 1007,7
13.07.2019 01:00:00 17,6 14,8 4 2 NW 1007,4
13.07.2019 00:00:00 18,6 15,4 5 3 WNW 1007,5
12.07.2019 23:00:00 19,0 14,2 4 2 W 1007,4
12.07.2019 22:00:00 21,5 12,3 5 3 NW 1006,7
12.07.2019 21:00:00 24,1 11,7 8 4 W 1006,2
12.07.2019 20:00:00 27,5 13,0 11 6 WSW 1005,6
12.07.2019 19:00:00 28,6 14,0 11 6 WSW 1005,4
12.07.2019 18:00:00 28,8 13,8 8 4 SW 1005,8
12.07.2019 17:00:00 28,6 14,0 13 7 WSW 1006,2
12.07.2019 16:00:00 28,2 15,1 11 6 WSW 1007,0
12.07.2019 15:00:00 27,5 15,5 5 3 SE 1007,6
12.07.2019 14:00:00 26,3 15,0 8 4 N 1008,4
12.07.2019 13:00:00 25,2 14,6 4 2 W 1009,1
12.07.2019 12:00:00 24,2 15,1 5 3 S 1010,0
12.07.2019 11:00:00 22,7 14,7 8 4 NE 1010,4
12.07.2019 10:00:00 21,5 17,0 5 3 E 1011,0
12.07.2019 09:00:00 19,0 18,0 0 0 N 1011,5
12.07.2019 08:00:00 16,0 15,9 2 1 W 1011,9
12.07.2019 07:00:00 13,3 13,2 2 1 NW 1011,9

tt = temperature
td = dewpoint
ff = wind speed
dd = wind direction
ppp = reduced air pressure

Next stations